createdAt,value
2018-09-25T00:00:30.466Z,3.25
2018-09-25T00:03:16.581Z,2.83
2018-09-25T00:06:02.693Z,2.60
2018-09-25T00:08:50.894Z,4.10
2018-09-25T00:11:38.629Z,3.53
2018-09-25T00:14:25.056Z,3.72
2018-09-25T00:17:12.664Z,3.67
2018-09-25T00:20:00.400Z,3.37
2018-09-25T00:22:47.946Z,3.92
2018-09-25T00:25:35.751Z,4.30
2018-09-25T00:28:21.640Z,3.83
2018-09-25T00:31:07.765Z,4.05
2018-09-25T00:33:53.858Z,3.97
2018-09-25T00:36:41.775Z,4.20
2018-09-25T00:39:29.529Z,3.95
2018-09-25T00:42:15.803Z,4.05
2018-09-25T00:45:02.103Z,4.22
2018-09-25T00:47:48.695Z,4.03
2018-09-25T00:50:34.914Z,4.85
2018-09-25T00:53:22.658Z,4.97
2018-09-25T00:56:10.361Z,5.18
2018-09-25T00:58:56.267Z,5.25
2018-09-25T01:01:41.840Z,5.32
2018-09-25T01:04:28.445Z,6.62
2018-09-25T01:07:14.455Z,7.82
2018-09-25T01:10:02.183Z,4.60
2018-09-25T01:12:50.216Z,5.93
2018-09-25T01:15:36.424Z,6.10
2018-09-25T01:18:24.034Z,6.00
2018-09-25T01:21:10.916Z,4.70
2018-09-25T01:23:58.505Z,5.55
2018-09-25T01:26:46.304Z,5.55
2018-09-25T01:29:34.472Z,4.97
2018-09-25T01:32:22.391Z,5.10
2018-09-25T01:35:10.024Z,5.18
2018-09-25T01:37:57.754Z,4.57
2018-09-25T01:40:43.939Z,4.25
2018-09-25T01:43:30.043Z,4.90
2018-09-25T01:46:16.562Z,4.20
2018-09-25T01:49:02.959Z,3.60
2018-09-25T01:51:50.640Z,4.10
2018-09-25T01:54:38.309Z,4.25
2018-09-25T01:57:26.145Z,4.55
2018-09-25T02:00:12.244Z,3.28
2018-09-25T02:02:59.480Z,3.58
2018-09-25T02:05:45.722Z,3.58
2018-09-25T02:08:33.706Z,3.17
2018-09-25T02:11:19.988Z,2.83
2018-09-25T02:14:06.192Z,4.10
2018-09-25T02:16:52.410Z,4.95
2018-09-25T02:19:40.152Z,4.68
2018-09-25T02:22:26.512Z,3.83
2018-09-25T02:25:14.306Z,3.37
2018-09-25T02:28:00.755Z,3.55
2018-09-25T02:30:48.378Z,3.72
2018-09-25T02:33:36.033Z,3.10
2018-09-25T02:36:23.839Z,3.08
2018-09-25T02:39:12.209Z,3.05
2018-09-25T02:41:58.312Z,3.28
2018-09-25T02:44:46.060Z,2.95
2018-09-25T02:47:32.453Z,2.95
2018-09-25T02:50:21.097Z,3.50
2018-09-25T02:53:07.475Z,4.00
2018-09-25T02:55:55.312Z,4.80
2018-09-25T02:58:43.669Z,3.33
2018-09-25T03:01:41.414Z,4.30
2018-09-25T03:04:27.503Z,2.60
2018-09-25T03:07:16.580Z,2.85
2018-09-25T03:10:02.688Z,2.70
2018-09-25T03:12:51.393Z,2.80
2018-09-25T03:15:37.498Z,3.45
2018-09-25T03:18:25.479Z,4.12
2018-09-25T03:21:13.196Z,2.60
2018-09-25T03:23:59.505Z,2.10
2018-09-25T03:26:45.582Z,2.67
2018-09-25T03:29:31.775Z,2.35
2018-09-25T03:32:19.522Z,2.80
2018-09-25T03:35:07.347Z,3.58
2018-09-25T03:37:54.987Z,5.00
2018-09-25T03:40:42.630Z,3.97
2018-09-25T03:43:30.473Z,3.50
2018-09-25T03:46:18.274Z,3.75
2018-09-25T03:49:05.018Z,4.35
2018-09-25T03:51:51.297Z,4.62
2018-09-25T03:54:37.621Z,4.95
2018-09-25T03:57:24.728Z,4.62
2018-09-25T04:00:12.658Z,4.53
2018-09-25T04:03:00.797Z,3.53
2018-09-25T04:05:48.422Z,3.67
2018-09-25T04:08:36.081Z,5.62
2018-09-25T04:11:22.252Z,4.70
2018-09-25T04:14:08.455Z,4.68
2018-09-25T04:16:54.623Z,3.20
2018-09-25T04:19:42.494Z,2.50
2018-09-25T04:22:30.224Z,2.75
2018-09-25T04:25:18.156Z,2.53
2018-09-25T04:28:04.429Z,2.78
2018-09-25T04:30:50.650Z,2.33
2018-09-25T04:33:39.114Z,2.90
2018-09-25T04:36:25.795Z,3.27
2018-09-25T04:39:12.286Z,3.90
2018-09-25T04:42:00.226Z,3.65
2018-09-25T04:44:46.429Z,2.73
2018-09-25T04:47:34.267Z,2.60
2018-09-25T04:50:21.091Z,2.10
2018-09-25T04:53:08.914Z,4.07
2018-09-25T04:55:56.219Z,3.12
2018-09-25T04:58:42.844Z,2.00
2018-09-25T05:01:30.690Z,2.33
2018-09-25T05:04:16.891Z,1.87
2018-09-25T05:07:04.721Z,1.77
2018-09-25T05:09:52.452Z,2.10
2018-09-25T05:12:40.271Z,1.83
2018-09-25T05:15:28.099Z,1.90
2018-09-25T05:18:15.894Z,2.83
2018-09-25T05:21:03.770Z,3.30
2018-09-25T05:23:49.781Z,3.50
2018-09-25T05:26:37.708Z,2.10
2018-09-25T05:29:25.465Z,3.40
2018-09-25T05:32:11.737Z,3.97
2018-09-25T05:34:59.476Z,4.63
2018-09-25T05:37:47.703Z,2.33
2018-09-25T05:40:35.580Z,2.15
2018-09-25T05:43:23.598Z,3.95
2018-09-25T05:46:11.340Z,4.37
2018-09-25T05:48:57.721Z,2.60
2018-09-25T05:51:45.523Z,3.30
2018-09-25T05:54:31.767Z,2.80
2018-09-25T05:57:19.485Z,2.10
2018-09-25T06:00:07.410Z,2.10
2018-09-25T06:02:55.154Z,2.42
2018-09-25T06:05:42.888Z,2.10
2018-09-25T06:08:29.187Z,1.90
2018-09-25T06:11:16.131Z,1.90
2018-09-25T06:14:02.396Z,2.00
2018-09-25T06:16:47.752Z,1.90
2018-09-25T06:19:35.620Z,2.12
2018-09-25T06:22:21.825Z,2.60
2018-09-25T06:25:08.003Z,1.98
2018-09-25T06:27:55.658Z,1.80
2018-09-25T06:30:43.868Z,2.17
2018-09-25T06:33:30.195Z,2.00
2018-09-25T06:36:18.411Z,6.80
2018-09-25T06:39:06.248Z,5.28
2018-09-25T06:41:53.977Z,5.62
2018-09-25T06:44:40.081Z,4.95
2018-09-25T06:47:27.800Z,4.22
2018-09-25T06:50:15.332Z,3.30
2018-09-25T06:53:01.523Z,3.50
2018-09-25T06:55:49.155Z,3.47
2018-09-25T06:58:35.362Z,3.03
2018-09-25T07:01:21.856Z,3.50
2018-09-25T07:04:07.751Z,3.72
2018-09-25T07:06:54.042Z,3.78
2018-09-25T07:09:41.730Z,3.75
2018-09-25T07:12:29.313Z,3.78
2018-09-25T07:15:15.492Z,3.85
2018-09-25T07:18:02.528Z,3.87
2018-09-25T07:20:48.435Z,2.95
2018-09-25T07:23:34.548Z,3.10
2018-09-25T07:26:22.454Z,3.70
2018-09-25T07:29:08.625Z,3.53
2018-09-25T07:31:56.496Z,3.42
2018-09-25T07:34:44.418Z,3.47
2018-09-25T07:37:31.316Z,3.20
2018-09-25T07:40:18.943Z,3.65
2018-09-25T07:43:06.679Z,3.33
2018-09-25T07:45:52.803Z,3.55
2018-09-25T07:48:40.321Z,3.47
2018-09-25T07:51:26.506Z,3.85
2018-09-25T07:54:12.486Z,4.45
2018-09-25T07:57:00.139Z,6.10
2018-09-25T07:59:47.848Z,9.00
2018-09-25T08:02:34.055Z,8.75
2018-09-25T08:05:21.889Z,7.00
2018-09-25T08:08:08.211Z,7.70
2018-09-25T08:10:54.386Z,6.68
2018-09-25T08:13:41.309Z,5.25
2018-09-25T08:16:29.112Z,5.85
2018-09-25T08:19:16.784Z,6.45
2018-09-25T08:22:04.301Z,4.90
2018-09-25T08:24:52.114Z,5.35
2018-09-25T08:27:39.766Z,5.25
2018-09-25T08:30:26.058Z,5.45
2018-09-25T08:33:13.888Z,6.53
2018-09-25T08:36:01.530Z,5.50
2018-09-25T08:38:47.110Z,5.07
2018-09-25T08:41:35.847Z,5.53
2018-09-25T08:44:21.951Z,5.60
2018-09-25T08:47:08.137Z,4.90
2018-09-25T08:49:55.786Z,4.18
2018-09-25T08:52:42.514Z,3.83
2018-09-25T08:55:31.151Z,4.50
2018-09-25T08:58:19.392Z,3.92
2018-09-25T09:01:05.770Z,4.32
2018-09-25T09:03:51.790Z,3.45
2018-09-25T09:06:39.610Z,3.90
2018-09-25T09:09:28.701Z,3.97
2018-09-25T09:12:16.404Z,3.85
2018-09-25T09:15:04.229Z,3.67
2018-09-25T09:17:50.043Z,3.47
2018-09-25T09:20:37.862Z,3.83
2018-09-25T09:23:25.498Z,4.43
2018-09-25T09:26:14.178Z,4.22
2018-09-25T09:29:01.787Z,3.55
2018-09-25T09:31:48.374Z,3.65
2018-09-25T09:34:35.013Z,2.25
2018-09-25T09:37:21.791Z,3.20
2018-09-25T09:40:09.739Z,2.75
2018-09-25T09:42:58.483Z,3.30
2018-09-25T09:45:46.130Z,2.40
2018-09-25T09:48:32.850Z,2.60
2018-09-25T09:51:20.654Z,1.90
2018-09-25T09:54:08.385Z,1.52
2018-09-25T09:56:55.942Z,1.70
2018-09-25T09:59:43.465Z,2.00
2018-09-25T10:02:29.844Z,2.00
2018-09-25T10:05:17.577Z,2.12
2018-09-25T10:08:03.984Z,1.98
2018-09-25T10:10:49.507Z,2.12
2018-09-25T10:13:37.006Z,1.60
2018-09-25T10:16:24.736Z,1.85
2018-09-25T10:19:12.959Z,1.48
2018-09-25T10:22:01.207Z,1.92
2018-09-25T10:24:47.413Z,1.67
2018-09-25T10:27:33.618Z,1.60
2018-09-25T10:30:22.472Z,1.90
2018-09-25T10:33:08.261Z,1.70
2018-09-25T10:35:55.874Z,1.73
2018-09-25T10:38:42.067Z,1.80
2018-09-25T10:41:30.335Z,1.73
2018-09-25T10:44:18.134Z,1.83
2018-09-25T10:47:05.788Z,2.20
2018-09-25T10:49:52.110Z,2.00
2018-09-25T10:52:38.294Z,1.45
2018-09-25T10:55:24.600Z,1.80
2018-09-25T10:58:12.224Z,1.92
2018-09-25T11:00:58.420Z,1.77
2018-09-25T11:03:46.139Z,2.20
2018-09-25T11:06:33.901Z,1.80
2018-09-25T11:09:21.548Z,2.10
2018-09-25T11:12:07.930Z,1.80
2018-09-25T11:14:55.548Z,1.87
2018-09-25T11:17:43.345Z,2.25
2018-09-25T11:20:31.100Z,1.87
2018-09-25T11:23:18.946Z,1.58
2018-09-25T11:26:06.672Z,1.67
2018-09-25T11:28:52.998Z,1.60
2018-09-25T11:31:39.165Z,1.80
2018-09-25T11:34:25.351Z,1.65
2018-09-25T11:37:12.993Z,2.17
2018-09-25T11:39:59.588Z,1.83
2018-09-25T11:42:47.428Z,1.60
2018-09-25T11:45:35.154Z,1.83
2018-09-25T11:48:22.995Z,1.75
2018-09-25T11:51:09.307Z,1.70
2018-09-25T11:53:57.222Z,2.00
2018-09-25T11:56:44.386Z,1.60
2018-09-25T11:59:32.294Z,1.50
2018-09-25T12:02:18.714Z,1.87
2018-09-25T12:05:03.953Z,1.75
2018-09-25T12:07:50.360Z,1.60
2018-09-25T12:10:38.007Z,2.30
2018-09-25T12:13:25.819Z,1.30
2018-09-25T12:16:12.149Z,1.40
2018-09-25T12:18:59.032Z,1.85
2018-09-25T12:21:46.706Z,1.70
2018-09-25T12:24:33.077Z,2.00
2018-09-25T12:27:19.797Z,1.60
2018-09-25T12:30:05.981Z,1.90
2018-09-25T12:32:52.400Z,1.55
2018-09-25T12:35:40.110Z,1.92
2018-09-25T12:38:27.843Z,1.62
2018-09-25T12:41:15.676Z,2.15
2018-09-25T12:44:04.347Z,1.50
2018-09-25T12:46:52.068Z,1.40
2018-09-25T12:49:39.897Z,2.17
2018-09-25T12:52:27.538Z,1.62
2018-09-25T12:55:15.253Z,1.58
2018-09-25T12:58:01.569Z,1.55
2018-09-25T13:00:49.426Z,1.35
2018-09-25T13:03:37.026Z,1.27
2018-09-25T13:06:24.678Z,1.23
2018-09-25T13:09:13.629Z,1.37
2018-09-25T13:12:00.412Z,1.23
2018-09-25T13:14:46.637Z,1.37
2018-09-25T13:17:33.015Z,1.48
2018-09-25T13:20:20.692Z,1.23
2018-09-25T13:23:08.372Z,1.17
2018-09-25T13:25:56.028Z,2.10
2018-09-25T13:28:43.534Z,1.52
2018-09-25T13:31:31.275Z,1.50
2018-09-25T13:34:16.989Z,1.62
2018-09-25T13:37:03.291Z,1.67
2018-09-25T13:39:49.354Z,1.50
2018-09-25T13:42:35.941Z,1.37
2018-09-25T13:45:23.591Z,1.85
2018-09-25T13:48:11.262Z,1.42
2018-09-25T13:50:59.182Z,1.67
2018-09-25T13:53:45.442Z,1.40
2018-09-25T13:56:31.645Z,1.58
2018-09-25T13:59:18.475Z,1.42
2018-09-25T14:02:06.188Z,1.60
2018-09-25T14:04:54.018Z,1.35
2018-09-25T14:07:40.009Z,1.77
2018-09-25T14:10:27.267Z,1.87
2018-09-25T14:13:14.860Z,1.27
2018-09-25T14:16:02.414Z,1.70
2018-09-25T14:18:49.200Z,1.65
2018-09-25T14:21:36.652Z,1.33
2018-09-25T14:24:24.599Z,1.27
2018-09-25T14:27:10.787Z,1.60
2018-09-25T14:29:58.497Z,1.90
2018-09-25T14:32:45.236Z,1.40
2018-09-25T14:35:32.940Z,1.73
2018-09-25T14:38:20.782Z,1.50
2018-09-25T14:41:08.296Z,1.33
2018-09-25T14:43:56.057Z,1.70
2018-09-25T14:46:42.428Z,1.35
2018-09-25T14:49:28.627Z,1.33
2018-09-25T14:52:16.354Z,1.52
2018-09-25T14:55:02.663Z,1.70
2018-09-25T14:57:50.405Z,1.60
2018-09-25T15:00:36.698Z,1.70
2018-09-25T15:03:24.222Z,2.00
2018-09-25T15:06:11.839Z,1.52
2018-09-25T15:08:58.176Z,1.37
2018-09-25T15:11:44.542Z,1.50
2018-09-25T15:14:31.601Z,1.35
2018-09-25T15:17:19.229Z,1.50
2018-09-25T15:20:06.929Z,1.60
2018-09-25T15:22:55.064Z,1.87
2018-09-25T15:25:42.835Z,1.92
2018-09-25T15:28:28.907Z,2.50
2018-09-25T15:31:14.546Z,1.73
2018-09-25T15:34:00.769Z,1.65
2018-09-25T15:36:48.709Z,1.87
2018-09-25T15:39:36.449Z,2.00
2018-09-25T15:42:22.650Z,1.80
2018-09-25T15:45:08.861Z,1.58
2018-09-25T15:47:55.239Z,1.60
2018-09-25T15:50:41.434Z,2.10
2018-09-25T15:53:29.268Z,2.05
2018-09-25T15:56:16.171Z,2.12
2018-09-25T15:59:04.037Z,1.65
2018-09-25T16:01:50.208Z,1.50
2018-09-25T16:04:38.082Z,1.70
2018-09-25T16:07:26.165Z,1.90
2018-09-25T16:10:14.040Z,1.90
2018-09-25T16:13:02.279Z,1.75
2018-09-25T16:15:49.317Z,1.60
2018-09-25T16:18:37.013Z,1.60
2018-09-25T16:21:23.109Z,1.85
2018-09-25T16:24:09.333Z,2.15
2018-09-25T16:26:55.605Z,1.45
2018-09-25T16:29:41.714Z,1.85
2018-09-25T16:32:29.630Z,1.50
2018-09-25T16:35:15.940Z,1.85
2018-09-25T16:38:03.631Z,1.35
2018-09-25T16:40:51.204Z,1.60
2018-09-25T16:43:37.602Z,1.80
2018-09-25T16:46:24.002Z,2.20
2018-09-25T16:49:11.752Z,1.45
2018-09-25T16:51:58.163Z,1.55
2018-09-25T16:54:44.126Z,1.80
2018-09-25T16:57:30.535Z,1.60
2018-09-25T17:00:18.084Z,1.62
2018-09-25T17:03:05.984Z,1.70
2018-09-25T17:05:51.416Z,1.80
2018-09-25T17:08:37.864Z,2.10
2018-09-25T17:11:26.143Z,1.65
2018-09-25T17:14:14.074Z,2.15
2018-09-25T17:17:01.788Z,2.33
2018-09-25T17:19:49.741Z,1.90
2018-09-25T17:22:36.232Z,2.15
2018-09-25T17:25:23.852Z,2.25
2018-09-25T17:28:10.183Z,1.98
2018-09-25T17:30:57.983Z,1.85
2018-09-25T17:33:45.933Z,2.45
2018-09-25T17:36:34.675Z,2.25
2018-09-25T17:39:21.215Z,2.00
2018-09-25T17:42:09.330Z,2.33
2018-09-25T17:44:55.834Z,1.80
2018-09-25T17:47:43.456Z,2.25
2018-09-25T17:50:31.193Z,2.50
2018-09-25T17:53:17.593Z,2.03
2018-09-25T17:56:05.328Z,3.03
2018-09-25T17:58:53.102Z,2.00
2018-09-25T18:01:39.894Z,2.20
2018-09-25T18:04:27.509Z,2.00
2018-09-25T18:07:13.742Z,2.08
2018-09-25T18:10:00.298Z,2.28
2018-09-25T18:12:46.912Z,2.20
2018-09-25T18:15:35.258Z,2.58
2018-09-25T18:18:23.093Z,2.28
2018-09-25T18:21:10.826Z,1.60
2018-09-25T18:23:56.419Z,2.10
2018-09-25T18:26:45.490Z,2.00
2018-09-25T18:29:32.079Z,2.20
2018-09-25T18:32:19.256Z,2.50
2018-09-25T18:35:05.380Z,2.08
2018-09-25T18:37:51.698Z,1.98
2018-09-25T18:40:39.729Z,2.42
2018-09-25T18:43:26.177Z,2.40
2018-09-25T18:46:13.869Z,2.65
2018-09-25T18:49:00.461Z,2.80
2018-09-25T18:51:48.320Z,2.78
2018-09-25T18:54:34.590Z,2.70
2018-09-25T18:57:23.496Z,2.97
2018-09-25T19:00:09.967Z,3.00
2018-09-25T19:02:58.645Z,3.50
2018-09-25T19:05:45.237Z,3.55
2018-09-25T19:08:32.961Z,3.53
2018-09-25T19:11:19.576Z,3.40
2018-09-25T19:14:06.795Z,3.90
2018-09-25T19:16:54.811Z,4.15
2018-09-25T19:19:41.445Z,4.05
2018-09-25T19:22:29.297Z,3.28
2018-09-25T19:25:16.883Z,3.50
2018-09-25T19:28:03.246Z,4.35
2018-09-25T19:30:49.327Z,3.83
2018-09-25T19:33:35.776Z,2.62
2018-09-25T19:36:22.289Z,3.33
2018-09-25T19:39:09.920Z,3.97
2018-09-25T19:41:57.562Z,3.10
2018-09-25T19:44:45.419Z,4.03
2018-09-25T19:47:34.154Z,4.32
2018-09-25T19:50:21.802Z,4.70
2018-09-25T19:53:08.525Z,4.87
2018-09-25T19:55:56.316Z,5.05
2018-09-25T19:58:41.741Z,5.03
2018-09-25T20:01:29.528Z,4.95
2018-09-25T20:04:15.836Z,4.90
2018-09-25T20:07:01.986Z,4.00
2018-09-25T20:09:48.219Z,4.95
2018-09-25T20:12:35.952Z,5.03
2018-09-25T20:15:23.784Z,4.50
2018-09-25T20:18:11.726Z,4.30
2018-09-25T20:20:58.427Z,4.80
2018-09-25T20:23:44.749Z,5.30
2018-09-25T20:26:32.614Z,4.75
2018-09-25T20:29:20.380Z,4.65
2018-09-25T20:32:06.591Z,4.75
2018-09-25T20:34:54.425Z,4.55
2018-09-25T20:37:42.152Z,4.28
2018-09-25T20:40:29.997Z,4.37
2018-09-25T20:43:18.081Z,4.70
2018-09-25T20:46:04.353Z,4.90
2018-09-25T20:48:51.923Z,4.03
2018-09-25T20:51:38.369Z,4.68
2018-09-25T20:54:24.669Z,4.47
2018-09-25T20:57:12.815Z,3.92
2018-09-25T21:00:00.539Z,4.30
2018-09-25T21:02:46.840Z,4.62
2018-09-25T21:05:33.059Z,4.57
2018-09-25T21:08:20.781Z,5.72
2018-09-25T21:11:06.035Z,5.12
2018-09-25T21:13:53.971Z,5.65
2018-09-25T21:16:40.129Z,5.35
2018-09-25T21:19:26.363Z,4.37
2018-09-25T21:22:13.369Z,5.22
2018-09-25T21:25:00.904Z,4.90
2018-09-25T21:27:47.406Z,4.57
2018-09-25T21:30:33.735Z,5.25
2018-09-25T21:33:19.752Z,4.45
2018-09-25T21:36:05.915Z,4.85
2018-09-25T21:38:53.894Z,4.82
2018-09-25T21:41:40.839Z,5.00
2018-09-25T21:44:28.887Z,5.03
2018-09-25T21:47:15.301Z,4.93
2018-09-25T21:50:01.794Z,4.53
2018-09-25T21:52:49.627Z,4.90
2018-09-25T21:55:37.574Z,4.80
2018-09-25T21:58:24.667Z,5.72
2018-09-25T22:01:12.420Z,5.50
2018-09-25T22:04:00.345Z,5.30
2018-09-25T22:06:48.388Z,6.30
2018-09-25T22:09:35.440Z,5.10
2018-09-25T22:12:21.509Z,5.53
2018-09-25T22:15:09.643Z,6.22
2018-09-25T22:17:55.944Z,6.30
2018-09-25T22:20:43.912Z,5.45
2018-09-25T22:23:30.106Z,6.53
2018-09-25T22:26:17.831Z,6.18
2018-09-25T22:29:04.214Z,6.47
2018-09-25T22:31:50.467Z,6.87
2018-09-25T22:34:37.431Z,6.60
2018-09-25T22:37:24.023Z,7.03
2018-09-25T22:40:09.428Z,6.97
2018-09-25T22:42:57.137Z,5.15
2018-09-25T22:45:43.336Z,5.18
2018-09-25T22:48:30.980Z,5.60
2018-09-25T22:51:17.288Z,5.55
2018-09-25T22:54:03.988Z,5.40
2018-09-25T22:56:51.619Z,5.82
2018-09-25T22:59:38.201Z,5.40
2018-09-25T23:02:24.435Z,5.50
2018-09-25T23:05:11.551Z,6.32
2018-09-25T23:07:57.720Z,7.55
2018-09-25T23:10:44.422Z,6.57
2018-09-25T23:13:30.523Z,6.30
2018-09-25T23:16:18.254Z,6.68
2018-09-25T23:19:04.447Z,6.55
2018-09-25T23:21:52.180Z,6.28
2018-09-25T23:24:39.907Z,5.65
2018-09-25T23:27:26.107Z,5.68
2018-09-25T23:30:13.751Z,6.57
2018-09-25T23:33:01.502Z,5.75
2018-09-25T23:35:48.101Z,6.90
2018-09-25T23:38:34.272Z,5.85
2018-09-25T23:41:20.182Z,6.85
2018-09-25T23:44:04.612Z,7.95
2018-09-25T23:47:05.283Z,7.82
2018-09-25T23:50:02.710Z,7.30
2018-09-25T23:52:59.760Z,5.82
2018-09-25T23:55:51.900Z,6.10
2018-09-25T23:58:26.340Z,6.50
